sensor_id;sensor_type;location;lat;lon;timestamp;P1;durP1;ratioP1;P2;durP2;ratioP2
74320;SDS011;62738;45.772;4.804;2023-04-07T00:01:16;10.52;;;5.18;;
74320;SDS011;62738;45.772;4.804;2023-04-07T00:03:43;8.82;;;5.03;;
74320;SDS011;62738;45.772;4.804;2023-04-07T00:06:10;9.05;;;5.20;;
74320;SDS011;62738;45.772;4.804;2023-04-07T00:08:36;12.00;;;5.30;;
74320;SDS011;62738;45.772;4.804;2023-04-07T00:11:03;10.25;;;5.30;;
74320;SDS011;62738;45.772;4.804;2023-04-07T00:13:30;9.85;;;5.28;;
74320;SDS011;62738;45.772;4.804;2023-04-07T00:15:56;8.60;;;4.85;;
74320;SDS011;62738;45.772;4.804;2023-04-07T00:18:23;11.15;;;5.55;;
74320;SDS011;62738;45.772;4.804;2023-04-07T00:20:49;10.63;;;6.10;;
74320;SDS011;62738;45.772;4.804;2023-04-07T00:23:16;12.15;;;5.85;;
74320;SDS011;62738;45.772;4.804;2023-04-07T00:25:43;9.85;;;5.07;;
74320;SDS011;62738;45.772;4.804;2023-04-07T00:28:09;10.30;;;5.00;;
74320;SDS011;62738;45.772;4.804;2023-04-07T00:30:36;10.20;;;5.22;;
74320;SDS011;62738;45.772;4.804;2023-04-07T00:33:02;10.93;;;5.22;;
74320;SDS011;62738;45.772;4.804;2023-04-07T00:35:34;10.13;;;5.05;;
74320;SDS011;62738;45.772;4.804;2023-04-07T00:38:01;7.10;;;4.32;;
74320;SDS011;62738;45.772;4.804;2023-04-07T00:40:28;10.18;;;4.90;;
74320;SDS011;62738;45.772;4.804;2023-04-07T00:42:55;8.43;;;4.78;;
74320;SDS011;62738;45.772;4.804;2023-04-07T00:45:22;12.10;;;5.07;;
74320;SDS011;62738;45.772;4.804;2023-04-07T00:47:49;8.98;;;5.22;;
74320;SDS011;62738;45.772;4.804;2023-04-07T00:50:16;9.95;;;5.00;;
74320;SDS011;62738;45.772;4.804;2023-04-07T00:52:43;9.20;;;5.32;;
74320;SDS011;62738;45.772;4.804;2023-04-07T00:55:11;8.70;;;4.93;;
74320;SDS011;62738;45.772;4.804;2023-04-07T00:57:37;10.95;;;4.85;;
74320;SDS011;62738;45.772;4.804;2023-04-07T01:00:04;11.00;;;5.05;;
74320;SDS011;62738;45.772;4.804;2023-04-07T01:02:42;11.10;;;5.72;;
74320;SDS011;62738;45.772;4.804;2023-04-07T01:13:42;9.23;;;4.68;;
74320;SDS011;62738;45.772;4.804;2023-04-07T01:16:15;9.98;;;4.93;;
74320;SDS011;62738;45.772;4.804;2023-04-07T01:18:50;9.43;;;4.90;;
74320;SDS011;62738;45.772;4.804;2023-04-07T01:21:19;9.63;;;4.75;;
74320;SDS011;62738;45.772;4.804;2023-04-07T01:24:11;10.65;;;5.13;;
74320;SDS011;62738;45.772;4.804;2023-04-07T01:27:14;8.85;;;4.75;;
74320;SDS011;62738;45.772;4.804;2023-04-07T01:29:47;9.88;;;4.63;;
74320;SDS011;62738;45.772;4.804;2023-04-07T01:32:17;8.80;;;4.80;;
74320;SDS011;62738;45.772;4.804;2023-04-07T01:34:46;8.00;;;4.68;;
74320;SDS011;62738;45.772;4.804;2023-04-07T01:37:15;9.98;;;5.15;;
74320;SDS011;62738;45.772;4.804;2023-04-07T01:39:42;10.55;;;5.03;;
74320;SDS011;62738;45.772;4.804;2023-04-07T01:42:09;7.35;;;4.70;;
74320;SDS011;62738;45.772;4.804;2023-04-07T01:44:37;7.95;;;4.30;;
74320;SDS011;62738;45.772;4.804;2023-04-07T01:47:05;10.85;;;5.00;;
74320;SDS011;62738;45.772;4.804;2023-04-07T01:49:32;7.88;;;4.20;;
74320;SDS011;62738;45.772;4.804;2023-04-07T01:52:00;11.70;;;4.90;;
74320;SDS011;62738;45.772;4.804;2023-04-07T01:54:28;10.80;;;4.95;;
74320;SDS011;62738;45.772;4.804;2023-04-07T01:56:55;9.27;;;4.40;;
74320;SDS011;62738;45.772;4.804;2023-04-07T01:59:21;8.50;;;4.72;;
74320;SDS011;62738;45.772;4.804;2023-04-07T02:01:48;7.95;;;4.20;;
74320;SDS011;62738;45.772;4.804;2023-04-07T02:07:05;8.25;;;4.22;;
74320;SDS011;62738;45.772;4.804;2023-04-07T02:09:35;9.45;;;4.40;;
74320;SDS011;62738;45.772;4.804;2023-04-07T02:12:05;8.43;;;4.75;;
74320;SDS011;62738;45.772;4.804;2023-04-07T02:14:34;8.00;;;3.97;;
74320;SDS011;62738;45.772;4.804;2023-04-07T02:17:02;13.52;;;4.95;;
74320;SDS011;62738;45.772;4.804;2023-04-07T02:19:30;8.55;;;4.50;;
74320;SDS011;62738;45.772;4.804;2023-04-07T02:21:58;9.93;;;4.40;;
74320;SDS011;62738;45.772;4.804;2023-04-07T02:24:26;8.00;;;4.03;;
74320;SDS011;62738;45.772;4.804;2023-04-07T02:26:53;8.25;;;3.75;;
74320;SDS011;62738;45.772;4.804;2023-04-07T02:29:19;8.13;;;4.10;;
74320;SDS011;62738;45.772;4.804;2023-04-07T02:31:46;7.53;;;3.88;;
74320;SDS011;62738;45.772;4.804;2023-04-07T02:34:13;8.05;;;4.15;;
74320;SDS011;62738;45.772;4.804;2023-04-07T02:36:40;10.27;;;5.30;;
74320;SDS011;62738;45.772;4.804;2023-04-07T02:39:07;8.70;;;4.32;;
74320;SDS011;62738;45.772;4.804;2023-04-07T02:41:34;10.02;;;4.80;;
74320;SDS011;62738;45.772;4.804;2023-04-07T02:44:01;9.30;;;5.10;;
74320;SDS011;62738;45.772;4.804;2023-04-07T02:46:27;7.85;;;4.05;;
74320;SDS011;62738;45.772;4.804;2023-04-07T02:48:54;9.43;;;4.60;;
74320;SDS011;62738;45.772;4.804;2023-04-07T02:51:21;8.30;;;4.30;;
74320;SDS011;62738;45.772;4.804;2023-04-07T02:53:48;9.50;;;4.28;;
74320;SDS011;62738;45.772;4.804;2023-04-07T02:56:15;8.20;;;4.70;;
74320;SDS011;62738;45.772;4.804;2023-04-07T02:58:42;6.72;;;3.60;;
74320;SDS011;62738;45.772;4.804;2023-04-07T03:01:08;12.18;;;4.10;;
74320;SDS011;62738;45.772;4.804;2023-04-07T03:03:35;8.55;;;4.05;;
74320;SDS011;62738;45.772;4.804;2023-04-07T03:06:02;9.00;;;4.40;;
74320;SDS011;62738;45.772;4.804;2023-04-07T03:08:29;8.18;;;4.25;;
74320;SDS011;62738;45.772;4.804;2023-04-07T03:10:55;9.90;;;4.55;;
74320;SDS011;62738;45.772;4.804;2023-04-07T03:13:22;9.15;;;4.35;;
74320;SDS011;62738;45.772;4.804;2023-04-07T03:15:49;8.80;;;3.90;;
74320;SDS011;62738;45.772;4.804;2023-04-07T03:18:15;8.85;;;4.30;;
74320;SDS011;62738;45.772;4.804;2023-04-07T03:20:42;8.60;;;4.28;;
74320;SDS011;62738;45.772;4.804;2023-04-07T03:23:09;7.97;;;4.43;;
74320;SDS011;62738;45.772;4.804;2023-04-07T03:25:36;8.18;;;4.70;;
74320;SDS011;62738;45.772;4.804;2023-04-07T03:28:03;9.95;;;4.40;;
74320;SDS011;62738;45.772;4.804;2023-04-07T03:30:30;10.07;;;3.90;;
74320;SDS011;62738;45.772;4.804;2023-04-07T03:32:56;8.35;;;4.50;;
74320;SDS011;62738;45.772;4.804;2023-04-07T03:35:23;9.30;;;4.47;;
74320;SDS011;62738;45.772;4.804;2023-04-07T03:37:50;7.80;;;4.13;;
74320;SDS011;62738;45.772;4.804;2023-04-07T03:40:16;9.70;;;3.92;;
74320;SDS011;62738;45.772;4.804;2023-04-07T03:42:44;7.20;;;4.18;;
74320;SDS011;62738;45.772;4.804;2023-04-07T03:45:11;8.88;;;4.70;;
74320;SDS011;62738;45.772;4.804;2023-04-07T03:47:38;7.28;;;4.13;;
74320;SDS011;62738;45.772;4.804;2023-04-07T03:50:05;9.95;;;4.22;;
74320;SDS011;62738;45.772;4.804;2023-04-07T03:52:32;8.00;;;4.03;;
74320;SDS011;62738;45.772;4.804;2023-04-07T03:54:59;9.13;;;4.10;;
74320;SDS011;62738;45.772;4.804;2023-04-07T03:57:25;7.45;;;3.90;;
74320;SDS011;62738;45.772;4.804;2023-04-07T03:59:53;8.30;;;3.83;;
74320;SDS011;62738;45.772;4.804;2023-04-07T04:02:20;9.07;;;4.00;;
74320;SDS011;62738;45.772;4.804;2023-04-07T04:04:47;7.20;;;3.90;;
74320;SDS011;62738;45.772;4.804;2023-04-07T04:07:14;7.50;;;3.85;;
74320;SDS011;62738;45.772;4.804;2023-04-07T04:09:41;9.20;;;4.15;;
74320;SDS011;62738;45.772;4.804;2023-04-07T04:12:08;8.48;;;3.97;;
74320;SDS011;62738;45.772;4.804;2023-04-07T04:14:34;7.60;;;4.07;;
74320;SDS011;62738;45.772;4.804;2023-04-07T04:17:01;10.38;;;4.32;;
74320;SDS011;62738;45.772;4.804;2023-04-07T04:19:31;8.38;;;4.43;;
74320;SDS011;62738;45.772;4.804;2023-04-07T04:21:57;8.85;;;4.10;;
74320;SDS011;62738;45.772;4.804;2023-04-07T04:24:24;6.72;;;4.07;;
74320;SDS011;62738;45.772;4.804;2023-04-07T04:26:51;7.15;;;3.80;;
74320;SDS011;62738;45.772;4.804;2023-04-07T04:29:17;7.93;;;4.32;;
74320;SDS011;62738;45.772;4.804;2023-04-07T04:31:44;7.88;;;4.30;;
74320;SDS011;62738;45.772;4.804;2023-04-07T04:34:11;8.20;;;3.97;;
74320;SDS011;62738;45.772;4.804;2023-04-07T04:36:37;8.02;;;4.00;;
74320;SDS011;62738;45.772;4.804;2023-04-07T04:39:06;8.32;;;3.90;;
74320;SDS011;62738;45.772;4.804;2023-04-07T04:41:33;10.63;;;4.25;;
74320;SDS011;62738;45.772;4.804;2023-04-07T04:43:59;7.97;;;4.10;;
74320;SDS011;62738;45.772;4.804;2023-04-07T04:46:26;7.93;;;3.70;;
74320;SDS011;62738;45.772;4.804;2023-04-07T04:48:53;7.95;;;4.18;;
74320;SDS011;62738;45.772;4.804;2023-04-07T04:51:20;7.80;;;3.80;;
74320;SDS011;62738;45.772;4.804;2023-04-07T04:53:46;9.35;;;3.80;;
74320;SDS011;62738;45.772;4.804;2023-04-07T04:56:13;8.07;;;3.90;;
74320;SDS011;62738;45.772;4.804;2023-04-07T04:58:40;8.30;;;3.75;;
74320;SDS011;62738;45.772;4.804;2023-04-07T05:01:11;7.78;;;4.22;;
74320;SDS011;62738;45.772;4.804;2023-04-07T05:03:39;7.18;;;4.18;;
74320;SDS011;62738;45.772;4.804;2023-04-07T05:06:06;8.50;;;4.05;;
74320;SDS011;62738;45.772;4.804;2023-04-07T05:08:32;9.05;;;4.20;;
74320;SDS011;62738;45.772;4.804;2023-04-07T05:10:59;8.88;;;3.83;;
74320;SDS011;62738;45.772;4.804;2023-04-07T05:13:26;5.50;;;3.60;;
74320;SDS011;62738;45.772;4.804;2023-04-07T05:15:55;6.30;;;3.17;;
74320;SDS011;62738;45.772;4.804;2023-04-07T05:18:22;7.15;;;3.35;;
74320;SDS011;62738;45.772;4.804;2023-04-07T05:20:49;6.93;;;3.65;;
74320;SDS011;62738;45.772;4.804;2023-04-07T05:23:16;7.20;;;3.63;;
74320;SDS011;62738;45.772;4.804;2023-04-07T05:25:43;9.43;;;3.67;;
74320;SDS011;62738;45.772;4.804;2023-04-07T05:28:09;8.95;;;3.47;;
74320;SDS011;62738;45.772;4.804;2023-04-07T05:30:36;5.72;;;3.60;;
74320;SDS011;62738;45.772;4.804;2023-04-07T05:33:02;8.88;;;4.38;;
74320;SDS011;62738;45.772;4.804;2023-04-07T05:35:29;6.28;;;3.53;;
74320;SDS011;62738;45.772;4.804;2023-04-07T05:37:56;6.32;;;3.63;;
74320;SDS011;62738;45.772;4.804;2023-04-07T05:40:23;8.93;;;3.80;;
74320;SDS011;62738;45.772;4.804;2023-04-07T05:42:49;5.82;;;3.60;;
74320;SDS011;62738;45.772;4.804;2023-04-07T05:45:16;7.15;;;3.75;;
74320;SDS011;62738;45.772;4.804;2023-04-07T05:47:43;5.22;;;3.25;;
74320;SDS011;62738;45.772;4.804;2023-04-07T05:50:10;5.50;;;3.00;;
74320;SDS011;62738;45.772;4.804;2023-04-07T05:52:37;5.97;;;3.67;;
74320;SDS011;62738;45.772;4.804;2023-04-07T05:55:04;7.63;;;3.67;;
74320;SDS011;62738;45.772;4.804;2023-04-07T05:57:31;5.07;;;3.40;;
74320;SDS011;62738;45.772;4.804;2023-04-07T05:59:59;4.82;;;3.30;;
74320;SDS011;62738;45.772;4.804;2023-04-07T06:02:26;5.03;;;3.17;;
74320;SDS011;62738;45.772;4.804;2023-04-07T06:04:53;4.90;;;3.25;;
74320;SDS011;62738;45.772;4.804;2023-04-07T06:07:19;5.03;;;3.28;;
74320;SDS011;62738;45.772;4.804;2023-04-07T06:09:46;5.97;;;2.97;;
74320;SDS011;62738;45.772;4.804;2023-04-07T06:12:13;4.65;;;2.55;;
74320;SDS011;62738;45.772;4.804;2023-04-07T06:14:40;4.40;;;2.75;;
74320;SDS011;62738;45.772;4.804;2023-04-07T06:17:06;9.50;;;4.78;;
74320;SDS011;62738;45.772;4.804;2023-04-07T06:19:33;8.18;;;4.05;;
74320;SDS011;62738;45.772;4.804;2023-04-07T06:22:00;5.32;;;3.20;;
74320;SDS011;62738;45.772;4.804;2023-04-07T06:24:27;6.20;;;2.88;;
74320;SDS011;62738;45.772;4.804;2023-04-07T06:26:53;5.10;;;2.80;;
74320;SDS011;62738;45.772;4.804;2023-04-07T06:29:22;6.22;;;2.70;;
74320;SDS011;62738;45.772;4.804;2023-04-07T06:31:48;4.85;;;2.60;;
74320;SDS011;62738;45.772;4.804;2023-04-07T06:34:15;6.05;;;2.85;;
74320;SDS011;62738;45.772;4.804;2023-04-07T06:36:42;7.13;;;2.95;;
74320;SDS011;62738;45.772;4.804;2023-04-07T06:39:09;5.05;;;2.80;;
74320;SDS011;62738;45.772;4.804;2023-04-07T06:41:36;4.15;;;2.85;;
74320;SDS011;62738;45.772;4.804;2023-04-07T06:44:04;5.43;;;2.80;;
74320;SDS011;62738;45.772;4.804;2023-04-07T06:46:33;6.88;;;2.70;;
74320;SDS011;62738;45.772;4.804;2023-04-07T06:48:59;5.15;;;2.67;;
74320;SDS011;62738;45.772;4.804;2023-04-07T06:51:26;6.30;;;2.63;;
74320;SDS011;62738;45.772;4.804;2023-04-07T06:53:53;4.35;;;2.72;;
74320;SDS011;62738;45.772;4.804;2023-04-07T06:56:21;4.88;;;2.65;;
74320;SDS011;62738;45.772;4.804;2023-04-07T06:58:48;4.65;;;2.50;;
74320;SDS011;62738;45.772;4.804;2023-04-07T07:01:15;4.53;;;2.80;;
74320;SDS011;62738;45.772;4.804;2023-04-07T07:03:41;4.60;;;2.33;;
74320;SDS011;62738;45.772;4.804;2023-04-07T07:06:08;6.85;;;2.58;;
74320;SDS011;62738;45.772;4.804;2023-04-07T07:08:36;4.25;;;2.30;;
74320;SDS011;62738;45.772;4.804;2023-04-07T07:11:02;5.38;;;2.08;;
74320;SDS011;62738;45.772;4.804;2023-04-07T07:13:29;5.20;;;2.53;;
74320;SDS011;62738;45.772;4.804;2023-04-07T07:15:56;3.90;;;2.13;;
74320;SDS011;62738;45.772;4.804;2023-04-07T07:18:23;3.88;;;1.95;;
74320;SDS011;62738;45.772;4.804;2023-04-07T07:20:49;3.10;;;1.88;;
74320;SDS011;62738;45.772;4.804;2023-04-07T07:23:16;3.05;;;1.75;;
74320;SDS011;62738;45.772;4.804;2023-04-07T07:25:43;4.78;;;1.98;;
74320;SDS011;62738;45.772;4.804;2023-04-07T07:28:10;3.50;;;1.90;;
74320;SDS011;62738;45.772;4.804;2023-04-07T07:30:38;5.43;;;2.00;;
74320;SDS011;62738;45.772;4.804;2023-04-07T07:33:06;3.63;;;1.73;;
74320;SDS011;62738;45.772;4.804;2023-04-07T07:35:33;5.65;;;1.83;;
74320;SDS011;62738;45.772;4.804;2023-04-07T07:38:00;4.80;;;1.70;;
74320;SDS011;62738;45.772;4.804;2023-04-07T07:40:26;5.07;;;2.03;;
74320;SDS011;62738;45.772;4.804;2023-04-07T07:42:53;3.72;;;1.70;;
74320;SDS011;62738;45.772;4.804;2023-04-07T07:45:19;3.47;;;1.20;;
74320;SDS011;62738;45.772;4.804;2023-04-07T07:47:46;6.90;;;1.70;;
74320;SDS011;62738;45.772;4.804;2023-04-07T07:50:13;3.60;;;1.50;;
74320;SDS011;62738;45.772;4.804;2023-04-07T07:52:39;9.40;;;1.40;;
74320;SDS011;62738;45.772;4.804;2023-04-07T07:55:07;4.93;;;1.35;;
74320;SDS011;62738;45.772;4.804;2023-04-07T07:57:34;3.60;;;1.25;;
74320;SDS011;62738;45.772;4.804;2023-04-07T08:00:01;5.50;;;1.50;;
74320;SDS011;62738;45.772;4.804;2023-04-07T08:02:29;4.68;;;1.52;;
74320;SDS011;62738;45.772;4.804;2023-04-07T08:04:58;4.45;;;1.40;;
74320;SDS011;62738;45.772;4.804;2023-04-07T08:07:25;3.55;;;1.13;;
74320;SDS011;62738;45.772;4.804;2023-04-07T08:09:52;5.95;;;1.30;;
74320;SDS011;62738;45.772;4.804;2023-04-07T08:12:20;7.70;;;1.55;;
74320;SDS011;62738;45.772;4.804;2023-04-07T08:14:46;4.72;;;1.30;;
74320;SDS011;62738;45.772;4.804;2023-04-07T08:17:15;6.40;;;1.33;;
74320;SDS011;62738;45.772;4.804;2023-04-07T08:19:42;6.25;;;1.50;;
74320;SDS011;62738;45.772;4.804;2023-04-07T08:22:08;5.00;;;1.65;;
74320;SDS011;62738;45.772;4.804;2023-04-07T08:24:35;7.03;;;1.52;;
74320;SDS011;62738;45.772;4.804;2023-04-07T08:27:02;3.60;;;1.25;;
74320;SDS011;62738;45.772;4.804;2023-04-07T08:29:28;5.20;;;1.30;;
74320;SDS011;62738;45.772;4.804;2023-04-07T08:31:57;5.03;;;1.17;;
74320;SDS011;62738;45.772;4.804;2023-04-07T08:34:23;3.92;;;1.02;;
74320;SDS011;62738;45.772;4.804;2023-04-07T08:36:50;4.30;;;1.10;;
74320;SDS011;62738;45.772;4.804;2023-04-07T08:39:17;3.47;;;1.10;;
74320;SDS011;62738;45.772;4.804;2023-04-07T08:41:45;3.13;;;0.93;;
74320;SDS011;62738;45.772;4.804;2023-04-07T08:44:13;4.32;;;1.17;;
74320;SDS011;62738;45.772;4.804;2023-04-07T08:46:41;3.47;;;1.00;;
74320;SDS011;62738;45.772;4.804;2023-04-07T08:49:09;5.50;;;0.82;;
74320;SDS011;62738;45.772;4.804;2023-04-07T08:51:43;4.15;;;1.00;;
74320;SDS011;62738;45.772;4.804;2023-04-07T08:54:15;2.92;;;1.10;;
74320;SDS011;62738;45.772;4.804;2023-04-07T08:56:44;2.10;;;0.80;;
74320;SDS011;62738;45.772;4.804;2023-04-07T08:59:12;2.60;;;0.82;;
74320;SDS011;62738;45.772;4.804;2023-04-07T09:01:40;3.38;;;0.85;;
74320;SDS011;62738;45.772;4.804;2023-04-07T09:04:08;4.43;;;1.10;;
74320;SDS011;62738;45.772;4.804;2023-04-07T09:06:35;7.63;;;1.15;;
74320;SDS011;62738;45.772;4.804;2023-04-07T09:09:03;3.58;;;0.98;;
74320;SDS011;62738;45.772;4.804;2023-04-07T09:11:34;5.10;;;1.17;;
74320;SDS011;62738;45.772;4.804;2023-04-07T09:14:02;2.63;;;0.70;;
74320;SDS011;62738;45.772;4.804;2023-04-07T09:16:29;3.20;;;0.85;;
74320;SDS011;62738;45.772;4.804;2023-04-07T09:18:56;3.78;;;0.98;;
74320;SDS011;62738;45.772;4.804;2023-04-07T09:21:23;5.18;;;1.08;;
74320;SDS011;62738;45.772;4.804;2023-04-07T09:23:50;3.08;;;0.90;;
74320;SDS011;62738;45.772;4.804;2023-04-07T09:28:54;4.97;;;1.10;;
74320;SDS011;62738;45.772;4.804;2023-04-07T09:31:23;5.50;;;1.05;;
74320;SDS011;62738;45.772;4.804;2023-04-07T09:34:22;8.00;;;1.75;;
74320;SDS011;62738;45.772;4.804;2023-04-07T09:36:51;3.35;;;0.77;;
74320;SDS011;62738;45.772;4.804;2023-04-07T09:39:17;4.50;;;1.00;;
74320;SDS011;62738;45.772;4.804;2023-04-07T09:41:44;4.90;;;0.80;;
74320;SDS011;62738;45.772;4.804;2023-04-07T09:44:12;3.45;;;0.80;;
74320;SDS011;62738;45.772;4.804;2023-04-07T09:46:48;5.32;;;1.02;;
74320;SDS011;62738;45.772;4.804;2023-04-07T09:49:20;4.00;;;0.75;;
74320;SDS011;62738;45.772;4.804;2023-04-07T09:51:56;2.60;;;0.80;;
74320;SDS011;62738;45.772;4.804;2023-04-07T09:54:35;1.95;;;0.63;;
74320;SDS011;62738;45.772;4.804;2023-04-07T09:57:03;3.67;;;0.95;;
74320;SDS011;62738;45.772;4.804;2023-04-07T09:59:32;2.05;;;0.70;;
74320;SDS011;62738;45.772;4.804;2023-04-07T10:01:59;1.67;;;0.60;;
74320;SDS011;62738;45.772;4.804;2023-04-07T10:04:26;2.90;;;0.73;;
74320;SDS011;62738;45.772;4.804;2023-04-07T10:06:55;5.07;;;0.70;;
74320;SDS011;62738;45.772;4.804;2023-04-07T10:09:24;2.50;;;0.90;;
74320;SDS011;62738;45.772;4.804;2023-04-07T10:11:53;2.83;;;0.80;;
74320;SDS011;62738;45.772;4.804;2023-04-07T10:14:21;2.00;;;0.80;;
74320;SDS011;62738;45.772;4.804;2023-04-07T10:16:51;3.08;;;0.80;;
74320;SDS011;62738;45.772;4.804;2023-04-07T10:19:18;2.30;;;0.70;;
74320;SDS011;62738;45.772;4.804;2023-04-07T10:21:45;1.92;;;0.80;;
74320;SDS011;62738;45.772;4.804;2023-04-07T10:27:05;3.33;;;0.88;;
74320;SDS011;62738;45.772;4.804;2023-04-07T10:29:38;3.42;;;0.88;;
74320;SDS011;62738;45.772;4.804;2023-04-07T10:32:07;3.25;;;1.15;;
74320;SDS011;62738;45.772;4.804;2023-04-07T10:34:54;2.72;;;0.93;;
74320;SDS011;62738;45.772;4.804;2023-04-07T10:37:23;3.65;;;1.02;;
74320;SDS011;62738;45.772;4.804;2023-04-07T10:39:52;2.03;;;0.90;;
74320;SDS011;62738;45.772;4.804;2023-04-07T10:42:44;4.60;;;1.15;;
74320;SDS011;62738;45.772;4.804;2023-04-07T10:45:13;2.75;;;0.90;;
74320;SDS011;62738;45.772;4.804;2023-04-07T10:50:26;2.67;;;0.93;;
74320;SDS011;62738;45.772;4.804;2023-04-07T10:53:06;3.30;;;0.73;;
74320;SDS011;62738;45.772;4.804;2023-04-07T10:55:38;1.30;;;0.70;;
74320;SDS011;62738;45.772;4.804;2023-04-07T10:58:27;3.53;;;0.80;;
74320;SDS011;62738;45.772;4.804;2023-04-07T11:03:34;1.55;;;0.70;;
74320;SDS011;62738;45.772;4.804;2023-04-07T11:06:12;1.88;;;0.73;;
74320;SDS011;62738;45.772;4.804;2023-04-07T11:08:40;3.75;;;0.70;;
74320;SDS011;62738;45.772;4.804;2023-04-07T11:11:08;3.78;;;0.90;;
74320;SDS011;62738;45.772;4.804;2023-04-07T11:13:49;3.75;;;0.95;;
74320;SDS011;62738;45.772;4.804;2023-04-07T11:16:17;2.90;;;0.85;;
74320;SDS011;62738;45.772;4.804;2023-04-07T11:18:45;3.80;;;0.80;;
74320;SDS011;62738;45.772;4.804;2023-04-07T11:21:16;2.03;;;0.80;;
74320;SDS011;62738;45.772;4.804;2023-04-07T11:23:44;1.67;;;0.80;;
74320;SDS011;62738;45.772;4.804;2023-04-07T11:26:13;4.22;;;0.80;;
74320;SDS011;62738;45.772;4.804;2023-04-07T11:28:50;3.15;;;0.80;;
74320;SDS011;62738;45.772;4.804;2023-04-07T11:31:25;2.15;;;0.65;;
74320;SDS011;62738;45.772;4.804;2023-04-07T11:34:02;3.17;;;0.90;;
74320;SDS011;62738;45.772;4.804;2023-04-07T11:39:19;3.13;;;0.90;;
74320;SDS011;62738;45.772;4.804;2023-04-07T11:41:47;2.00;;;0.70;;
74320;SDS011;62738;45.772;4.804;2023-04-07T11:44:15;2.83;;;0.70;;
74320;SDS011;62738;45.772;4.804;2023-04-07T11:49:44;2.97;;;1.00;;
74320;SDS011;62738;45.772;4.804;2023-04-07T11:52:12;4.22;;;0.90;;
74320;SDS011;62738;45.772;4.804;2023-04-07T11:57:07;2.33;;;0.80;;
74320;SDS011;62738;45.772;4.804;2023-04-07T11:59:37;2.30;;;0.80;;
74320;SDS011;62738;45.772;4.804;2023-04-07T12:02:05;3.22;;;0.77;;
74320;SDS011;62738;45.772;4.804;2023-04-07T12:04:33;2.60;;;0.98;;
74320;SDS011;62738;45.772;4.804;2023-04-07T12:07:06;1.83;;;0.88;;
74320;SDS011;62738;45.772;4.804;2023-04-07T12:09:34;1.75;;;0.70;;
74320;SDS011;62738;45.772;4.804;2023-04-07T12:12:03;2.33;;;0.73;;
74320;SDS011;62738;45.772;4.804;2023-04-07T12:14:31;2.42;;;0.80;;
74320;SDS011;62738;45.772;4.804;2023-04-07T12:16:58;3.17;;;0.70;;
74320;SDS011;62738;45.772;4.804;2023-04-07T12:19:28;3.13;;;0.70;;
74320;SDS011;62738;45.772;4.804;2023-04-07T12:21:57;1.55;;;0.77;;
74320;SDS011;62738;45.772;4.804;2023-04-07T12:24:24;2.58;;;0.60;;
74320;SDS011;62738;45.772;4.804;2023-04-07T12:26:51;2.40;;;0.70;;
74320;SDS011;62738;45.772;4.804;2023-04-07T12:29:18;2.58;;;0.75;;
74320;SDS011;62738;45.772;4.804;2023-04-07T12:31:45;4.32;;;0.73;;
74320;SDS011;62738;45.772;4.804;2023-04-07T12:34:16;2.13;;;0.63;;
74320;SDS011;62738;45.772;4.804;2023-04-07T12:36:42;1.80;;;0.77;;
74320;SDS011;62738;45.772;4.804;2023-04-07T12:39:09;2.42;;;1.10;;
74320;SDS011;62738;45.772;4.804;2023-04-07T12:41:36;2.30;;;0.75;;
74320;SDS011;62738;45.772;4.804;2023-04-07T12:44:04;4.13;;;0.70;;
74320;SDS011;62738;45.772;4.804;2023-04-07T12:46:31;1.40;;;0.63;;
74320;SDS011;62738;45.772;4.804;2023-04-07T12:48:57;2.85;;;0.60;;
74320;SDS011;62738;45.772;4.804;2023-04-07T12:51:24;2.10;;;0.68;;
74320;SDS011;62738;45.772;4.804;2023-04-07T12:53:51;1.70;;;0.82;;
74320;SDS011;62738;45.772;4.804;2023-04-07T12:56:19;1.73;;;0.68;;
74320;SDS011;62738;45.772;4.804;2023-04-07T12:58:47;2.47;;;0.60;;
74320;SDS011;62738;45.772;4.804;2023-04-07T13:01:14;2.92;;;0.80;;
74320;SDS011;62738;45.772;4.804;2023-04-07T13:03:42;0.88;;;0.45;;
74320;SDS011;62738;45.772;4.804;2023-04-07T13:06:09;2.40;;;0.73;;
74320;SDS011;62738;45.772;4.804;2023-04-07T13:08:36;1.98;;;0.75;;
74320;SDS011;62738;45.772;4.804;2023-04-07T13:11:03;3.13;;;0.70;;
74320;SDS011;62738;45.772;4.804;2023-04-07T13:13:30;1.92;;;0.65;;
74320;SDS011;62738;45.772;4.804;2023-04-07T13:15:57;2.97;;;0.68;;
74320;SDS011;62738;45.772;4.804;2023-04-07T13:18:23;2.70;;;0.70;;
74320;SDS011;62738;45.772;4.804;2023-04-07T13:20:50;3.47;;;0.80;;
74320;SDS011;62738;45.772;4.804;2023-04-07T13:23:37;3.40;;;0.68;;
74320;SDS011;62738;45.772;4.804;2023-04-07T13:26:08;3.63;;;0.88;;
74320;SDS011;62738;45.772;4.804;2023-04-07T13:28:36;3.65;;;1.98;;
74320;SDS011;62738;45.772;4.804;2023-04-07T13:31:03;1.55;;;0.70;;
74320;SDS011;62738;45.772;4.804;2023-04-07T13:33:29;3.08;;;0.77;;
74320;SDS011;62738;45.772;4.804;2023-04-07T13:35:56;2.28;;;0.75;;
74320;SDS011;62738;45.772;4.804;2023-04-07T13:38:23;2.03;;;0.80;;
74320;SDS011;62738;45.772;4.804;2023-04-07T13:40:50;2.88;;;0.77;;
74320;SDS011;62738;45.772;4.804;2023-04-07T13:43:16;7.15;;;0.88;;
74320;SDS011;62738;45.772;4.804;2023-04-07T13:45:44;4.43;;;0.82;;
74320;SDS011;62738;45.772;4.804;2023-04-07T13:48:12;4.03;;;0.80;;
74320;SDS011;62738;45.772;4.804;2023-04-07T13:50:38;2.22;;;0.60;;
74320;SDS011;62738;45.772;4.804;2023-04-07T13:53:06;2.42;;;0.70;;
74320;SDS011;62738;45.772;4.804;2023-04-07T13:55:32;3.28;;;0.73;;
74320;SDS011;62738;45.772;4.804;2023-04-07T13:57:59;2.80;;;0.50;;
74320;SDS011;62738;45.772;4.804;2023-04-07T14:00:26;0.80;;;0.57;;
74320;SDS011;62738;45.772;4.804;2023-04-07T14:02:52;3.80;;;0.88;;
74320;SDS011;62738;45.772;4.804;2023-04-07T14:05:21;1.60;;;0.60;;
74320;SDS011;62738;45.772;4.804;2023-04-07T14:07:48;1.30;;;0.70;;
74320;SDS011;62738;45.772;4.804;2023-04-07T14:10:16;3.40;;;0.70;;
74320;SDS011;62738;45.772;4.804;2023-04-07T14:12:43;3.50;;;0.80;;
74320;SDS011;62738;45.772;4.804;2023-04-07T14:15:09;1.90;;;0.70;;
74320;SDS011;62738;45.772;4.804;2023-04-07T14:17:37;4.05;;;1.05;;
74320;SDS011;62738;45.772;4.804;2023-04-07T14:20:03;4.00;;;0.80;;
74320;SDS011;62738;45.772;4.804;2023-04-07T14:22:30;2.42;;;0.80;;
74320;SDS011;62738;45.772;4.804;2023-04-07T14:24:57;2.47;;;0.63;;
74320;SDS011;62738;45.772;4.804;2023-04-07T14:27:24;3.45;;;0.55;;
74320;SDS011;62738;45.772;4.804;2023-04-07T14:29:51;2.92;;;0.80;;
74320;SDS011;62738;45.772;4.804;2023-04-07T14:32:18;2.33;;;0.45;;
74320;SDS011;62738;45.772;4.804;2023-04-07T14:34:44;3.15;;;0.70;;
74320;SDS011;62738;45.772;4.804;2023-04-07T14:37:11;2.15;;;0.60;;
74320;SDS011;62738;45.772;4.804;2023-04-07T14:39:39;2.22;;;0.70;;
74320;SDS011;62738;45.772;4.804;2023-04-07T14:42:08;3.05;;;0.70;;
74320;SDS011;62738;45.772;4.804;2023-04-07T14:44:35;1.98;;;0.52;;
74320;SDS011;62738;45.772;4.804;2023-04-07T14:47:02;1.55;;;0.60;;
74320;SDS011;62738;45.772;4.804;2023-04-07T14:49:29;2.70;;;0.77;;
74320;SDS011;62738;45.772;4.804;2023-04-07T14:51:55;3.83;;;0.98;;
74320;SDS011;62738;45.772;4.804;2023-04-07T14:54:22;1.35;;;0.57;;
74320;SDS011;62738;45.772;4.804;2023-04-07T14:56:49;2.05;;;0.82;;
74320;SDS011;62738;45.772;4.804;2023-04-07T14:59:16;3.10;;;0.80;;
74320;SDS011;62738;45.772;4.804;2023-04-07T15:01:43;1.17;;;0.55;;
74320;SDS011;62738;45.772;4.804;2023-04-07T15:04:09;2.05;;;0.77;;
74320;SDS011;62738;45.772;4.804;2023-04-07T15:06:39;3.28;;;0.80;;
74320;SDS011;62738;45.772;4.804;2023-04-07T15:09:06;3.50;;;0.60;;
74320;SDS011;62738;45.772;4.804;2023-04-07T15:11:33;1.95;;;0.60;;
74320;SDS011;62738;45.772;4.804;2023-04-07T15:13:59;2.33;;;0.90;;
74320;SDS011;62738;45.772;4.804;2023-04-07T15:16:27;2.03;;;0.70;;
74320;SDS011;62738;45.772;4.804;2023-04-07T15:18:54;1.80;;;0.57;;
74320;SDS011;62738;45.772;4.804;2023-04-07T15:21:21;1.80;;;0.60;;